Mount Jewett, Pennsylvania
Current Conditions -  °F | °C
As of 6:53 PM on Monday 24 Nov 2014 (Local Time) from KBFD Reporting Station
Clear Clear  
Wind Chill: 53°   Ceiling: Unl
Heat Index: 53°   Visibility: 10mi
Dew Point: 41°   Wind: 8mph
Humidity: 64%   Direction: 220°SW
Pressure: 29.58"   Gusts: 18mph
Location:  41.73°N, 78.64°W
Report Text: KBFD 242353Z AUTO 22007G16KT 10SM CLR 12/05 A2958 RMK AO2 SLP013 60003 T01170050 10167 20111 51049
Loading
Personal Weather Stations






























Interactive Weather Map New forecast layout! Learn more

10-Day Weather Forecast

Advertisements
Track Severe Weather on mobile